createdAt,value
2022-08-12T11:19:13.986Z,4476.00
2022-08-12T11:20:15.083Z,4488.00
2022-08-12T11:21:16.025Z,4504.00
2022-08-12T11:22:13.934Z,4512.00
2022-08-12T11:23:25.914Z,4524.00
2022-08-12T11:24:30.028Z,4520.00
2022-08-12T11:25:13.915Z,4508.00
2022-08-12T11:26:13.898Z,4516.00
2022-08-12T11:27:13.877Z,4524.00
2022-08-12T11:28:13.896Z,4540.00
2022-08-12T11:29:22.423Z,4576.00
2022-08-12T11:30:31.331Z,4588.00
2022-08-12T11:31:14.395Z,4600.00
2022-08-12T11:32:13.830Z,4604.00
2022-08-12T11:33:24.389Z,4608.00
2022-08-12T11:34:51.477Z,4628.00
2022-08-12T11:35:13.848Z,4644.00
2022-08-12T11:36:14.610Z,4656.00
2022-08-12T11:37:25.377Z,4664.00
2022-08-12T11:38:13.734Z,4672.00
2022-08-12T11:39:13.765Z,4688.00
2022-08-12T11:40:13.749Z,4700.00
2022-08-12T11:41:13.715Z,4712.00
2022-08-12T11:42:13.709Z,4728.00
2022-08-12T11:43:18.778Z,4752.00
2022-08-12T11:44:35.549Z,4768.00
2022-08-12T11:45:16.298Z,4764.00
2022-08-12T11:46:13.657Z,4776.00
2022-08-12T11:47:13.649Z,4792.00
2022-08-12T11:48:15.257Z,4804.00
2022-08-12T11:49:13.632Z,4792.00
2022-08-12T11:50:19.100Z,4796.00
2022-08-12T11:51:13.630Z,4808.00
2022-08-12T11:52:35.270Z,4820.00
2022-08-12T11:53:57.566Z,4840.00
2022-08-12T11:54:14.782Z,4856.00
2022-08-12T11:55:15.013Z,4856.00
2022-08-12T11:56:13.587Z,4876.00
2022-08-12T11:58:36.564Z,4888.00
2022-08-12T11:59:28.634Z,4912.00
2022-08-12T12:01:58.710Z,4936.00
2022-08-12T12:02:17.553Z,4932.00
2022-08-12T12:03:13.608Z,4936.00
2022-08-12T12:04:28.983Z,4940.00
2022-08-12T12:05:13.486Z,4948.00
2022-08-12T12:06:16.214Z,4968.00
2022-08-12T12:07:13.467Z,4976.00
2022-08-12T12:08:40.430Z,4972.00
2022-08-12T12:09:13.451Z,4976.00
2022-08-12T12:10:13.454Z,5004.00
2022-08-12T12:11:13.446Z,5024.00
2022-08-12T12:12:13.427Z,5036.00
2022-08-12T12:13:23.156Z,5044.00
2022-08-12T12:14:13.423Z,5044.00
2022-08-12T12:15:13.474Z,5056.00
2022-08-12T12:16:13.414Z,5072.00
2022-08-12T12:17:13.391Z,5080.00
2022-08-12T12:18:13.380Z,5080.00
2022-08-12T12:19:13.370Z,5096.00
2022-08-12T12:20:13.364Z,5116.00
2022-08-12T12:21:13.371Z,5128.00
2022-08-12T12:22:15.823Z,5136.00
2022-08-12T12:23:29.286Z,5140.00
2022-08-12T12:24:13.337Z,5148.00
2022-08-12T12:25:14.051Z,5160.00
2022-08-12T12:26:34.931Z,5176.00
2022-08-12T12:27:13.328Z,5188.00
2022-08-12T12:28:36.702Z,5212.00
2022-08-12T12:30:18.437Z,5224.00
2022-08-12T12:30:25.214Z,5224.00
2022-08-12T12:31:15.255Z,5240.00
2022-08-12T12:32:13.269Z,5252.00
2022-08-12T12:33:18.067Z,5256.00
2022-08-12T12:34:13.239Z,5264.00
2022-08-12T12:36:06.443Z,5292.00
2022-08-12T12:36:20.129Z,5316.00
2022-08-12T12:37:16.465Z,5348.00
2022-08-12T12:38:13.224Z,5372.00
2022-08-12T12:39:13.240Z,5384.00
2022-08-12T12:40:13.381Z,5408.00
2022-08-12T12:41:16.574Z,5436.00
2022-08-12T12:42:42.498Z,5448.00
2022-08-12T12:43:13.827Z,5468.00
2022-08-12T12:44:13.393Z,5480.00
2022-08-12T12:45:19.775Z,5508.00
2022-08-12T12:46:13.138Z,5536.00
2022-08-12T12:47:28.638Z,5556.00
2022-08-12T12:48:13.133Z,5564.00
2022-08-12T12:49:15.374Z,5580.00
2022-08-12T12:50:13.109Z,5580.00
2022-08-12T12:51:13.114Z,5612.00
2022-08-12T12:52:19.687Z,5620.00
2022-08-12T12:54:05.339Z,5620.00
2022-08-12T12:54:13.088Z,5628.00
2022-08-12T12:55:13.272Z,5644.00
2022-08-12T12:56:13.073Z,5664.00
2022-08-12T12:57:13.076Z,5688.00
2022-08-12T12:58:13.048Z,5692.00
2022-08-12T12:59:55.366Z,5712.00
2022-08-12T13:00:13.063Z,5732.00
2022-08-12T13:01:27.985Z,5752.00
2022-08-12T13:02:13.062Z,5768.00
2022-08-12T13:03:19.162Z,5788.00
2022-08-12T13:04:14.620Z,5812.00
2022-08-12T13:05:14.078Z,5824.00
2022-08-12T13:06:12.984Z,5840.00
2022-08-12T13:07:12.976Z,5860.00
2022-08-12T13:08:12.982Z,5896.00
2022-08-12T13:09:13.447Z,5948.00
2022-08-12T13:10:13.295Z,6008.00
2022-08-12T13:11:12.955Z,6084.00
2022-08-12T13:12:12.950Z,6192.00
2022-08-12T13:14:07.255Z,6312.00
2022-08-12T13:14:28.161Z,6456.00
2022-08-12T13:15:12.916Z,6632.00
2022-08-12T13:16:14.291Z,6812.00
2022-08-12T13:17:14.833Z,7000.00
2022-08-12T13:18:12.909Z,7220.00
2022-08-12T13:19:12.902Z,7472.00
2022-08-12T13:20:12.901Z,7804.00
2022-08-12T13:21:15.615Z,8188.00
2022-08-12T13:22:12.878Z,8708.00
2022-08-12T13:23:35.906Z,9448.00
2022-08-12T13:24:12.858Z,10544.00
2022-08-12T13:25:12.850Z,12196.00
2022-08-12T13:26:14.578Z,14244.00
2022-08-12T13:27:12.836Z,16512.00
2022-08-12T13:28:12.842Z,19040.00
2022-08-12T13:29:12.831Z,23168.00
2022-08-12T13:30:12.826Z,30496.00
2022-08-12T13:31:12.808Z,41216.00
2022-08-12T13:32:28.331Z,47264.00
2022-08-12T13:33:17.576Z,48800.00
2022-08-12T13:34:34.258Z,50624.00
2022-08-12T13:35:33.257Z,51232.00
2022-08-12T13:36:18.273Z,51968.00
2022-08-12T13:37:12.771Z,53760.00
2022-08-12T13:38:12.775Z,56896.00
2022-08-12T13:39:12.822Z,57440.00
2022-08-12T13:40:12.754Z,57728.00
2022-08-12T13:41:12.764Z,59872.00
2022-08-12T13:42:14.249Z,63680.00
2022-08-12T13:43:13.225Z,68320.00
2022-08-12T13:44:12.754Z,69920.00
2022-08-12T13:45:12.723Z,70496.00
2022-08-12T13:46:12.732Z,70208.00
2022-08-12T13:47:19.561Z,71072.00
2022-08-12T13:48:12.707Z,70784.00
2022-08-12T13:49:17.465Z,70080.00
2022-08-12T13:50:12.704Z,71520.00
2022-08-12T13:51:12.687Z,72320.00
2022-08-12T13:52:13.845Z,72736.00
2022-08-12T13:53:24.461Z,73504.00
2022-08-12T13:54:14.174Z,73728.00
2022-08-12T13:55:12.694Z,74848.00
2022-08-12T13:56:12.659Z,75680.00
2022-08-12T13:57:16.973Z,77088.00
2022-08-12T13:58:12.789Z,77216.00
2022-08-12T13:59:12.651Z,76896.00
2022-08-12T14:00:12.660Z,78528.00
2022-08-12T14:01:12.630Z,84736.00
2022-08-12T14:02:12.696Z,86688.00
2022-08-12T14:03:12.653Z,86048.00
2022-08-12T14:04:12.692Z,83360.00
2022-08-12T14:05:31.510Z,81536.00
2022-08-12T14:06:15.445Z,82496.00
2022-08-12T14:07:12.612Z,84480.00
2022-08-12T14:08:12.607Z,88288.00
2022-08-12T14:09:17.849Z,93024.00
2022-08-12T14:10:16.059Z,92672.00
2022-08-12T14:11:13.276Z,91968.00
2022-08-12T14:12:16.351Z,91040.00
2022-08-12T14:13:17.136Z,91360.00
2022-08-12T14:14:13.070Z,90304.00
2022-08-12T14:15:12.576Z,91104.00
2022-08-12T14:16:14.428Z,94656.00
2022-08-12T14:17:12.549Z,92640.00
2022-08-12T14:18:13.123Z,88736.00
2022-08-12T14:19:22.483Z,87680.00
2022-08-12T14:20:12.539Z,86592.00
2022-08-12T14:21:18.268Z,85856.00
2022-08-12T14:22:12.538Z,88384.00
2022-08-12T14:24:02.091Z,87744.00
2022-08-12T14:24:12.525Z,88608.00
2022-08-12T14:25:12.517Z,90688.00
2022-08-12T14:26:13.611Z,91456.00
2022-08-12T14:27:12.519Z,89728.00
2022-08-12T14:28:12.516Z,88576.00
2022-08-12T14:29:21.772Z,86720.00
2022-08-12T14:30:15.304Z,82880.00
2022-08-12T14:31:18.323Z,85696.00
2022-08-12T14:32:16.568Z,86176.00
2022-08-12T14:33:12.490Z,84928.00
2022-08-12T14:34:12.497Z,83968.00
2022-08-12T14:35:12.508Z,82912.00
2022-08-12T14:36:12.858Z,80704.00
2022-08-12T14:37:12.952Z,81472.00
2022-08-12T14:38:12.484Z,81632.00
2022-08-12T14:39:12.530Z,79872.00
2022-08-12T14:40:18.378Z,77088.00
2022-08-12T14:41:12.482Z,75616.00
2022-08-12T14:42:12.475Z,74528.00
2022-08-12T14:43:12.467Z,73280.00
2022-08-12T14:44:57.001Z,70528.00
2022-08-12T14:45:12.604Z,68928.00
2022-08-12T14:46:12.462Z,69408.00
2022-08-12T14:47:12.485Z,70016.00
2022-08-12T14:48:12.459Z,69088.00
2022-08-12T14:50:00.776Z,65632.00
2022-08-12T14:50:58.856Z,63360.00
2022-08-12T14:52:42.711Z,62624.00
2022-08-12T14:53:11.602Z,60448.00
2022-08-12T14:55:13.870Z,57824.00
2022-08-12T14:57:23.201Z,54592.00
2022-08-12T14:58:12.426Z,56096.00
2022-08-12T14:59:20.674Z,58144.00
2022-08-12T15:00:12.436Z,58624.00
2022-08-12T15:01:12.455Z,58464.00
2022-08-12T15:02:12.437Z,58816.00
2022-08-12T15:03:12.426Z,61600.00
2022-08-12T15:04:12.426Z,67936.00
2022-08-12T15:05:12.416Z,78240.00
2022-08-12T15:06:39.094Z,82144.00
2022-08-12T15:07:34.109Z,76736.00
2022-08-12T15:08:12.899Z,73664.00
2022-08-12T15:09:12.488Z,70912.00
2022-08-12T15:10:12.711Z,66272.00
2022-08-12T15:11:12.414Z,66528.00
2022-08-12T15:12:14.602Z,67040.00
2022-08-12T15:13:12.438Z,64608.00
2022-08-12T15:14:13.796Z,64448.00
2022-08-12T15:15:12.412Z,66944.00
2022-08-12T15:16:12.412Z,66496.00
2022-08-12T15:17:12.410Z,66528.00
2022-08-12T15:18:12.434Z,66944.00
2022-08-12T15:20:27.912Z,66848.00
2022-08-12T15:20:32.552Z,64288.00
2022-08-12T15:21:12.413Z,63872.00
2022-08-12T15:22:37.726Z,62624.00
2022-08-12T15:23:18.047Z,61664.00
2022-08-12T15:24:12.413Z,61344.00
2022-08-12T15:25:17.826Z,61664.00
2022-08-12T15:26:21.192Z,63232.00
2022-08-12T15:27:12.410Z,64288.00
2022-08-12T15:28:21.512Z,63872.00
2022-08-12T15:29:12.442Z,62464.00
2022-08-12T15:30:12.406Z,60352.00
2022-08-12T15:31:27.362Z,59168.00
2022-08-12T15:32:16.129Z,60192.00
2022-08-12T15:33:18.766Z,59968.00
2022-08-12T15:34:12.409Z,60640.00
2022-08-12T15:35:12.400Z,60032.00
2022-08-12T15:36:12.406Z,58560.00
2022-08-12T15:37:12.402Z,58624.00
2022-08-12T15:38:15.947Z,57792.00
2022-08-12T15:39:16.829Z,56672.00
2022-08-12T15:40:12.444Z,54880.00
2022-08-12T15:41:12.401Z,54944.00
2022-08-12T15:42:12.425Z,54944.00
2022-08-12T15:43:12.402Z,55072.00
2022-08-12T15:44:36.786Z,54912.00
2022-08-12T15:45:12.411Z,52960.00
2022-08-12T15:46:14.800Z,52928.00
2022-08-12T15:47:12.416Z,52128.00
2022-08-12T15:48:20.158Z,50816.00
2022-08-12T15:49:16.929Z,51712.00
2022-08-12T15:50:23.018Z,51840.00
2022-08-12T15:51:12.411Z,51072.00
2022-08-12T15:52:27.037Z,48576.00
2022-08-12T15:53:14.420Z,48288.00
2022-08-12T15:54:33.933Z,49728.00
2022-08-12T15:55:12.405Z,50272.00
2022-08-12T15:56:12.512Z,49792.00
2022-08-12T15:57:17.007Z,49824.00
2022-08-12T15:58:12.408Z,49056.00
2022-08-12T15:59:12.415Z,48544.00
2022-08-12T16:00:32.006Z,48544.00
2022-08-12T16:01:12.403Z,48064.00
2022-08-12T16:02:12.408Z,47936.00
2022-08-12T16:03:13.696Z,46528.00
2022-08-12T16:04:12.420Z,44640.00
2022-08-12T16:06:11.280Z,44448.00
2022-08-12T16:06:25.763Z,44224.00
2022-08-12T16:07:12.436Z,43840.00
2022-08-12T16:08:19.813Z,43904.00
2022-08-12T16:09:12.473Z,43360.00
2022-08-12T16:10:12.401Z,42912.00
2022-08-12T16:11:15.322Z,42080.00
2022-08-12T16:12:12.488Z,41184.00
2022-08-12T16:13:12.412Z,40384.00
2022-08-12T16:14:12.408Z,40960.00
2022-08-12T16:15:13.436Z,40544.00
2022-08-12T16:16:23.470Z,39296.00
2022-08-12T16:17:15.466Z,38240.00
2022-08-12T16:18:19.920Z,37632.00
2022-08-12T16:20:02.365Z,36672.00
2022-08-12T16:20:12.411Z,36192.00
2022-08-12T16:21:50.452Z,35904.00
2022-08-12T16:22:12.399Z,35520.00
2022-08-12T16:23:36.206Z,35136.00
2022-08-12T16:24:12.404Z,34944.00
2022-08-12T16:25:12.418Z,34784.00
2022-08-12T16:26:15.500Z,34048.00
2022-08-12T16:27:12.403Z,33888.00
2022-08-12T16:28:12.422Z,33664.00
2022-08-12T16:29:15.488Z,32640.00
2022-08-12T16:30:12.415Z,32032.00
2022-08-12T16:31:16.970Z,32000.00
2022-08-12T16:32:12.415Z,31808.00
2022-08-12T16:33:12.448Z,31072.00
2022-08-12T16:34:38.391Z,30304.00
2022-08-12T16:35:16.408Z,30240.00
2022-08-12T16:36:12.408Z,29568.00
2022-08-12T16:37:12.420Z,29184.00
2022-08-12T16:38:27.360Z,29408.00
2022-08-12T16:39:12.457Z,29152.00
2022-08-12T16:40:12.504Z,28288.00
2022-08-12T16:41:12.431Z,27616.00
2022-08-12T16:42:12.452Z,27232.00
2022-08-12T16:43:13.037Z,27104.00
2022-08-12T16:44:12.422Z,26208.00
2022-08-12T16:45:13.722Z,25792.00
2022-08-12T16:46:31.120Z,25632.00
2022-08-12T16:47:12.405Z,25248.00
2022-08-12T16:48:34.072Z,24928.00
2022-08-12T16:49:13.782Z,24576.00
2022-08-12T16:50:14.611Z,24416.00
2022-08-12T16:51:12.464Z,23968.00
2022-08-12T16:52:12.572Z,23552.00
2022-08-12T16:53:12.415Z,23584.00
2022-08-12T16:54:14.127Z,23680.00
2022-08-12T16:55:13.080Z,23072.00
2022-08-12T16:56:12.450Z,22624.00
2022-08-12T16:57:12.414Z,22432.00
2022-08-12T16:58:28.428Z,22240.00
2022-08-12T16:59:16.147Z,21920.00
2022-08-12T17:00:13.224Z,21312.00
2022-08-12T17:01:14.051Z,21248.00
2022-08-12T17:02:12.418Z,19040.00
2022-08-12T17:03:12.388Z,14528.00
2022-08-12T17:04:12.398Z,14528.00
2022-08-12T17:05:12.385Z,9492.00
2022-08-12T17:06:12.385Z,8236.00
2022-08-12T17:07:12.401Z,8524.00
2022-08-12T17:08:12.373Z,8996.00
2022-08-12T17:09:17.327Z,6436.00
2022-08-12T17:10:12.373Z,5352.00
2022-08-12T17:11:12.370Z,6120.00
2022-08-12T17:12:12.374Z,10060.00
2022-08-12T17:13:12.352Z,8644.00
2022-08-12T17:14:12.367Z,8480.00
2022-08-12T17:15:50.374Z,5696.00
2022-08-12T17:16:18.029Z,6208.00
2022-08-12T17:17:26.205Z,5760.00
2022-08-12T17:18:42.119Z,5240.00
2022-08-12T17:19:12.318Z,4692.00
2022-08-12T17:20:35.157Z,4632.00
2022-08-12T17:21:12.315Z,4920.00
2022-08-12T17:30:02.256Z,4824.00
